CFG1VE LICA-EDDM
Flight info
| Callsign | CFG1VE |
|---|---|
| Flight time | 1h 41m |
| Altitude | 32000 |
| Route | ARBUM DCT EVINO DCT BEDPI DCT IBENI DCT PESUT DCT RASTA DCT REDBU Q112 NAPSA NAPSA4A |
| Aircraft | A320/M-SDE3FGHIJ1LORVWXYZ/LB1 |
Departure
| Time | 2026-05-08 16:21 |
|---|---|
| Airport | Lamezia Terme Sant'Eufemia International Airport (LICA) |
Arrival
| Time | 2026-05-08 18:02 |
|---|---|
| Airport | Munich Airport (EDDM) |
| Time | Latitude | Longitude | Altitude | Speed | Heading |
|---|---|---|---|---|---|
| 2026-05-08 15:58 | 38.90859 | 16.24607 | 32 ft | 0 kts | 53° |
| 2026-05-08 16:13 | 38.90859 | 16.24623 | 31 ft | 1 kts | 120° |
| 2026-05-08 16:14 | 38.90852 | 16.24628 | 30 ft | 2 kts | 148° |
| 2026-05-08 16:14 | 38.90833 | 16.24620 | 32 ft | 4 kts | 204° |
| 2026-05-08 16:14 | 38.90795 | 16.24626 | 32 ft | 7 kts | 136° |
| 2026-05-08 16:14 | 38.90785 | 16.24676 | 32 ft | 5 kts | 100° |
| 2026-05-08 16:15 | 38.90782 | 16.24708 | 32 ft | 0 kts | 98° |
| 2026-05-08 16:15 | 38.90780 | 16.24726 | 32 ft | 7 kts | 98° |
| 2026-05-08 16:15 | 38.90768 | 16.24833 | 32 ft | 17 kts | 97° |
| 2026-05-08 16:15 | 38.90714 | 16.24933 | 32 ft | 12 kts | 148° |
| 2026-05-08 16:16 | 38.90675 | 16.25000 | 33 ft | 6 kts | 102° |
| 2026-05-08 16:16 | 38.90671 | 16.25025 | 33 ft | 6 kts | 99° |
| 2026-05-08 16:16 | 38.90658 | 16.25132 | 33 ft | 16 kts | 99° |
| 2026-05-08 16:16 | 38.90643 | 16.25271 | 33 ft | 15 kts | 98° |
| 2026-05-08 16:17 | 38.90628 | 16.25401 | 33 ft | 14 kts | 99° |
| 2026-05-08 16:17 | 38.90612 | 16.25527 | 33 ft | 15 kts | 99° |
| 2026-05-08 16:17 | 38.90596 | 16.25658 | 32 ft | 15 kts | 99° |
| 2026-05-08 16:17 | 38.90581 | 16.25798 | 32 ft | 16 kts | 95° |
| 2026-05-08 16:18 | 38.90567 | 16.25928 | 33 ft | 13 kts | 96° |
| 2026-05-08 16:18 | 38.90555 | 16.26032 | 34 ft | 11 kts | 98° |
| 2026-05-08 16:18 | 38.90543 | 16.26130 | 33 ft | 11 kts | 100° |
| 2026-05-08 16:18 | 38.90495 | 16.26195 | 31 ft | 0 kts | 151° |
| 2026-05-08 16:19 | 38.90480 | 16.26205 | 31 ft | 8 kts | 152° |
| 2026-05-08 16:19 | 38.90410 | 16.26252 | 32 ft | 14 kts | 152° |
| 2026-05-08 16:19 | 38.90324 | 16.26255 | 33 ft | 12 kts | 222° |
| 2026-05-08 16:20 | 38.90319 | 16.26147 | 34 ft | 17 kts | 282° |
| 2026-05-08 16:20 | 38.90365 | 16.25735 | 32 ft | 81 kts | 276° |
| 2026-05-08 16:20 | 38.90474 | 16.24777 | 33 ft | 133 kts | 279° |
| 2026-05-08 16:20 | 38.90618 | 16.23438 | 245 ft | 157 kts | 276° |
| 2026-05-08 16:21 | 38.90797 | 16.22048 | 857 ft | 159 kts | 280° |
| 2026-05-08 16:21 | 38.91001 | 16.20589 | 1297 ft | 181 kts | 279° |
| 2026-05-08 16:21 | 38.91207 | 16.18849 | 1558 ft | 208 kts | 277° |
| 2026-05-08 16:21 | 38.91421 | 16.16940 | 1970 ft | 231 kts | 278° |
| 2026-05-08 16:22 | 38.91657 | 16.14806 | 2542 ft | 247 kts | 278° |
| 2026-05-08 16:22 | 38.91999 | 16.12636 | 3469 ft | 249 kts | 290° |
| 2026-05-08 16:22 | 38.92926 | 16.10736 | 4332 ft | 254 kts | 308° |
| 2026-05-08 16:22 | 38.93765 | 16.09480 | 4975 ft | 256 kts | 308° |
| 2026-05-08 16:23 | 38.94403 | 16.08529 | 5487 ft | 256 kts | 307° |
| 2026-05-08 16:23 | 38.95564 | 16.06786 | 6364 ft | 258 kts | 306° |
| 2026-05-08 16:23 | 38.96733 | 16.05022 | 7169 ft | 261 kts | 306° |
| 2026-05-08 16:24 | 38.97914 | 16.03232 | 7983 ft | 263 kts | 306° |
| 2026-05-08 16:24 | 38.99108 | 16.01416 | 8782 ft | 267 kts | 306° |
| 2026-05-08 16:24 | 39.00302 | 15.99597 | 9572 ft | 270 kts | 306° |
| 2026-05-08 16:24 | 39.01534 | 15.97719 | 10299 ft | 276 kts | 306° |
| 2026-05-08 16:25 | 39.02846 | 15.95829 | 10551 ft | 300 kts | 312° |
| 2026-05-08 16:25 | 39.04561 | 15.94109 | 10757 ft | 327 kts | 324° |
| 2026-05-08 16:25 | 39.06680 | 15.92768 | 11307 ft | 339 kts | 331° |
| 2026-05-08 16:25 | 39.08803 | 15.91537 | 11979 ft | 342 kts | 330° |
| 2026-05-08 16:26 | 39.10981 | 15.90260 | 12707 ft | 344 kts | 330° |
| 2026-05-08 16:26 | 39.13157 | 15.88974 | 13433 ft | 346 kts | 330° |
| 2026-05-08 16:26 | 39.15356 | 15.87672 | 14107 ft | 349 kts | 330° |
| 2026-05-08 16:26 | 39.17558 | 15.86365 | 14711 ft | 352 kts | 330° |
| 2026-05-08 16:27 | 39.19793 | 15.85035 | 15310 ft | 355 kts | 330° |
| 2026-05-08 16:27 | 39.22046 | 15.83692 | 15929 ft | 357 kts | 329° |
| 2026-05-08 16:27 | 39.24311 | 15.82346 | 16545 ft | 359 kts | 329° |
| 2026-05-08 16:27 | 39.26588 | 15.80991 | 17155 ft | 361 kts | 328° |
| 2026-05-08 16:28 | 39.28708 | 15.79315 | 17760 ft | 356 kts | 317° |
| 2026-05-08 16:28 | 39.30602 | 15.77264 | 18352 ft | 356 kts | 314° |
| 2026-05-08 16:28 | 39.32489 | 15.75177 | 18876 ft | 358 kts | 314° |
| 2026-05-08 16:28 | 39.34390 | 15.73075 | 19394 ft | 361 kts | 314° |
| 2026-05-08 16:29 | 39.36304 | 15.70961 | 19909 ft | 363 kts | 314° |
| 2026-05-08 16:29 | 39.38233 | 15.68834 | 20431 ft | 366 kts | 315° |
| 2026-05-08 16:29 | 39.40177 | 15.66695 | 20944 ft | 368 kts | 315° |
| 2026-05-08 16:29 | 39.42135 | 15.64539 | 21463 ft | 371 kts | 315° |
| 2026-05-08 16:30 | 39.44111 | 15.62362 | 21940 ft | 374 kts | 314° |
| 2026-05-08 16:30 | 39.46099 | 15.60167 | 22405 ft | 376 kts | 314° |
| 2026-05-08 16:30 | 39.48094 | 15.57958 | 22863 ft | 379 kts | 314° |
| 2026-05-08 16:30 | 39.50105 | 15.55728 | 23317 ft | 382 kts | 314° |
| 2026-05-08 16:31 | 39.52129 | 15.53484 | 23720 ft | 384 kts | 314° |
| 2026-05-08 16:31 | 39.54161 | 15.51231 | 24092 ft | 386 kts | 314° |
| 2026-05-08 16:31 | 39.56210 | 15.48963 | 24466 ft | 388 kts | 314° |
| 2026-05-08 16:31 | 39.58265 | 15.46687 | 24841 ft | 389 kts | 314° |
| 2026-05-08 16:32 | 39.60303 | 15.44425 | 25211 ft | 390 kts | 314° |
| 2026-05-08 16:32 | 39.62395 | 15.42099 | 25565 ft | 392 kts | 314° |
| 2026-05-08 16:32 | 39.64467 | 15.39795 | 25918 ft | 393 kts | 314° |
| 2026-05-08 16:32 | 39.66542 | 15.37475 | 26278 ft | 394 kts | 314° |
| 2026-05-08 16:33 | 39.68620 | 15.35150 | 26602 ft | 395 kts | 315° |
| 2026-05-08 16:33 | 39.70842 | 15.33061 | 26925 ft | 403 kts | 324° |
| 2026-05-08 16:33 | 39.73404 | 15.31476 | 27256 ft | 413 kts | 333° |
| 2026-05-08 16:33 | 39.76187 | 15.30416 | 27587 ft | 419 kts | 338° |
| 2026-05-08 16:34 | 39.79006 | 15.29430 | 27899 ft | 420 kts | 338° |
| 2026-05-08 16:34 | 39.81824 | 15.28441 | 28199 ft | 422 kts | 338° |
| 2026-05-08 16:34 | 39.84662 | 15.27444 | 28506 ft | 424 kts | 338° |
| 2026-05-08 16:34 | 39.87517 | 15.26439 | 28802 ft | 425 kts | 338° |
| 2026-05-08 16:35 | 39.90374 | 15.25432 | 29116 ft | 426 kts | 338° |
| 2026-05-08 16:35 | 39.93241 | 15.24422 | 29392 ft | 428 kts | 338° |
| 2026-05-08 16:35 | 39.96116 | 15.23405 | 29657 ft | 429 kts | 338° |
| 2026-05-08 16:35 | 39.98997 | 15.22386 | 29911 ft | 430 kts | 338° |
| 2026-05-08 16:36 | 40.01931 | 15.21348 | 30136 ft | 432 kts | 338° |
| 2026-05-08 16:36 | 40.04792 | 15.20336 | 30339 ft | 432 kts | 338° |
| 2026-05-08 16:36 | 40.07732 | 15.19297 | 30625 ft | 431 kts | 337° |
| 2026-05-08 16:36 | 40.10585 | 15.18288 | 30914 ft | 430 kts | 337° |
| 2026-05-08 16:37 | 40.13504 | 15.17255 | 31237 ft | 428 kts | 337° |
| 2026-05-08 16:37 | 40.16331 | 15.16251 | 31535 ft | 426 kts | 337° |
| 2026-05-08 16:37 | 40.19191 | 15.15233 | 31836 ft | 425 kts | 337° |
| 2026-05-08 16:37 | 40.22081 | 15.14205 | 31978 ft | 423 kts | 337° |
| 2026-05-08 16:38 | 40.27697 | 15.12203 | 32006 ft | 416 kts | 336° |
| 2026-05-08 16:38 | 40.33274 | 15.10200 | 32005 ft | 415 kts | 336° |
| 2026-05-08 16:39 | 40.38842 | 15.08201 | 32005 ft | 415 kts | 336° |
| 2026-05-08 16:39 | 40.44413 | 15.06204 | 32007 ft | 415 kts | 336° |
| 2026-05-08 16:40 | 40.49970 | 15.04214 | 32001 ft | 414 kts | 336° |
| 2026-05-08 16:40 | 40.55534 | 15.02221 | 31997 ft | 414 kts | 336° |
| 2026-05-08 16:41 | 40.61092 | 15.00218 | 32006 ft | 414 kts | 337° |
| 2026-05-08 16:42 | 40.69426 | 14.97191 | 31971 ft | 414 kts | 337° |
| 2026-05-08 16:42 | 40.74990 | 14.95186 | 31970 ft | 415 kts | 337° |
| 2026-05-08 16:43 | 40.80554 | 14.93180 | 32039 ft | 414 kts | 337° |
| 2026-05-08 16:43 | 40.86117 | 14.91161 | 32011 ft | 415 kts | 337° |
| 2026-05-08 16:44 | 40.91685 | 14.89134 | 32006 ft | 415 kts | 337° |
| 2026-05-08 16:44 | 40.97259 | 14.87109 | 32002 ft | 416 kts | 337° |
| 2026-05-08 16:45 | 41.02839 | 14.85075 | 32025 ft | 416 kts | 337° |
| 2026-05-08 16:45 | 41.08412 | 14.83029 | 32021 ft | 415 kts | 337° |
| 2026-05-08 16:46 | 41.13081 | 14.81313 | 32015 ft | 416 kts | 337° |
| 2026-05-08 16:46 | 41.18633 | 14.79283 | 32018 ft | 416 kts | 337° |
| 2026-05-08 16:47 | 41.24242 | 14.77220 | 32055 ft | 416 kts | 337° |
| 2026-05-08 16:47 | 41.29878 | 14.75349 | 32047 ft | 419 kts | 340° |
| 2026-05-08 16:48 | 41.35574 | 14.73754 | 32047 ft | 419 kts | 341° |
| 2026-05-08 16:48 | 41.41282 | 14.72168 | 32037 ft | 418 kts | 341° |
| 2026-05-08 16:49 | 41.46969 | 14.70504 | 32054 ft | 418 kts | 340° |
| 2026-05-08 16:49 | 41.52643 | 14.68810 | 32052 ft | 418 kts | 340° |
| 2026-05-08 16:50 | 41.58316 | 14.67129 | 32043 ft | 418 kts | 340° |
| 2026-05-08 16:50 | 41.63992 | 14.65443 | 32045 ft | 418 kts | 340° |
| 2026-05-08 16:51 | 41.69652 | 14.63756 | 32063 ft | 416 kts | 340° |
| 2026-05-08 16:51 | 41.75299 | 14.62092 | 32061 ft | 415 kts | 340° |
| 2026-05-08 16:52 | 41.80929 | 14.60412 | 32058 ft | 415 kts | 340° |
| 2026-05-08 16:52 | 41.86567 | 14.58709 | 32046 ft | 415 kts | 340° |
| 2026-05-08 16:53 | 41.94997 | 14.56179 | 32043 ft | 414 kts | 340° |
| 2026-05-08 16:53 | 42.00603 | 14.54499 | 32034 ft | 413 kts | 340° |
| 2026-05-08 16:54 | 42.06252 | 14.52808 | 32027 ft | 413 kts | 340° |
| 2026-05-08 16:54 | 42.11861 | 14.51136 | 32009 ft | 413 kts | 340° |
| 2026-05-08 16:55 | 42.17478 | 14.49446 | 32011 ft | 414 kts | 340° |
| 2026-05-08 16:55 | 42.23101 | 14.47744 | 32007 ft | 415 kts | 340° |
| 2026-05-08 16:56 | 42.28746 | 14.46030 | 32009 ft | 416 kts | 340° |
| 2026-05-08 16:56 | 42.34395 | 14.44310 | 32039 ft | 416 kts | 340° |
| 2026-05-08 16:57 | 42.40047 | 14.42590 | 32032 ft | 416 kts | 340° |
| 2026-05-08 16:57 | 42.45664 | 14.40885 | 32025 ft | 416 kts | 340° |
| 2026-05-08 16:58 | 42.51348 | 14.39151 | 32026 ft | 416 kts | 340° |
| 2026-05-08 16:58 | 42.56990 | 14.37421 | 32044 ft | 416 kts | 340° |
| 2026-05-08 16:59 | 42.62612 | 14.35702 | 32039 ft | 415 kts | 340° |
| 2026-05-08 16:59 | 42.68246 | 14.33975 | 32036 ft | 415 kts | 340° |
| 2026-05-08 17:00 | 42.73879 | 14.32249 | 32057 ft | 415 kts | 340° |
| 2026-05-08 17:00 | 42.79507 | 14.30517 | 32053 ft | 414 kts | 340° |
| 2026-05-08 17:01 | 42.85134 | 14.28779 | 32036 ft | 414 kts | 340° |
| 2026-05-08 17:01 | 42.90760 | 14.27042 | 32032 ft | 414 kts | 340° |
| 2026-05-08 17:02 | 42.96391 | 14.25303 | 32040 ft | 416 kts | 341° |
| 2026-05-08 17:02 | 43.02055 | 14.23549 | 32027 ft | 419 kts | 341° |
| 2026-05-08 17:03 | 43.07756 | 14.21775 | 32024 ft | 421 kts | 341° |
| 2026-05-08 17:03 | 43.13465 | 14.19990 | 32041 ft | 420 kts | 340° |
| 2026-05-08 17:04 | 43.19160 | 14.18215 | 32038 ft | 421 kts | 341° |
| 2026-05-08 17:04 | 43.24928 | 14.16418 | 32030 ft | 423 kts | 341° |
| 2026-05-08 17:05 | 43.30661 | 14.14614 | 32028 ft | 424 kts | 341° |
| 2026-05-08 17:05 | 43.36415 | 14.12804 | 32040 ft | 425 kts | 342° |
| 2026-05-08 17:06 | 43.42203 | 14.10982 | 32021 ft | 428 kts | 342° |
| 2026-05-08 17:06 | 43.48016 | 14.09157 | 32026 ft | 429 kts | 342° |
| 2026-05-08 17:07 | 43.53835 | 14.07323 | 32029 ft | 429 kts | 342° |
| 2026-05-08 17:07 | 43.59624 | 14.05486 | 32020 ft | 432 kts | 342° |
| 2026-05-08 17:08 | 43.65492 | 14.03623 | 32016 ft | 434 kts | 342° |
| 2026-05-08 17:08 | 43.71391 | 14.01756 | 32018 ft | 436 kts | 342° |
| 2026-05-08 17:09 | 43.77314 | 13.99881 | 32034 ft | 437 kts | 343° |
| 2026-05-08 17:09 | 43.83262 | 13.97986 | 32020 ft | 440 kts | 343° |
| 2026-05-08 17:10 | 43.89131 | 13.96109 | 32022 ft | 441 kts | 343° |
| 2026-05-08 17:10 | 43.95120 | 13.94192 | 32022 ft | 442 kts | 343° |
| 2026-05-08 17:11 | 44.01144 | 13.92317 | 32021 ft | 445 kts | 347° |
| 2026-05-08 17:11 | 44.07354 | 13.91627 | 32026 ft | 448 kts | 352° |
| 2026-05-08 17:12 | 44.13567 | 13.91078 | 32031 ft | 448 kts | 352° |
| 2026-05-08 17:12 | 44.19793 | 13.90532 | 32027 ft | 448 kts | 353° |
| 2026-05-08 17:13 | 44.26026 | 13.89971 | 32042 ft | 449 kts | 352° |
| 2026-05-08 17:13 | 44.32268 | 13.89405 | 32036 ft | 450 kts | 352° |
| 2026-05-08 17:14 | 44.38524 | 13.88840 | 32033 ft | 451 kts | 353° |
| 2026-05-08 17:14 | 44.44795 | 13.88278 | 32021 ft | 453 kts | 353° |
| 2026-05-08 17:15 | 44.51091 | 13.87708 | 32024 ft | 453 kts | 353° |
| 2026-05-08 17:15 | 44.57389 | 13.87131 | 32017 ft | 454 kts | 353° |
| 2026-05-08 17:16 | 44.63735 | 13.86551 | 32019 ft | 455 kts | 353° |
| 2026-05-08 17:16 | 44.70029 | 13.85984 | 32015 ft | 456 kts | 353° |
| 2026-05-08 17:17 | 44.76372 | 13.85408 | 32017 ft | 457 kts | 353° |
| 2026-05-08 17:17 | 44.82717 | 13.84831 | 32011 ft | 458 kts | 353° |
| 2026-05-08 17:18 | 44.89072 | 13.84247 | 32011 ft | 458 kts | 353° |
| 2026-05-08 17:18 | 44.95439 | 13.83665 | 32032 ft | 458 kts | 353° |
| 2026-05-08 17:19 | 45.01808 | 13.83089 | 32027 ft | 459 kts | 353° |
| 2026-05-08 17:19 | 45.08179 | 13.82497 | 32023 ft | 459 kts | 353° |
| 2026-05-08 17:20 | 45.14547 | 13.81912 | 32027 ft | 459 kts | 353° |
| 2026-05-08 17:20 | 45.20928 | 13.81317 | 32021 ft | 460 kts | 353° |
| 2026-05-08 17:21 | 45.27318 | 13.80725 | 32014 ft | 460 kts | 353° |
| 2026-05-08 17:21 | 45.32638 | 13.80231 | 32013 ft | 460 kts | 353° |
| 2026-05-08 17:22 | 45.39025 | 13.79636 | 32015 ft | 461 kts | 353° |
| 2026-05-08 17:22 | 45.45432 | 13.79038 | 32012 ft | 461 kts | 353° |
| 2026-05-08 17:23 | 45.51841 | 13.78439 | 32013 ft | 462 kts | 353° |
| 2026-05-08 17:23 | 45.58261 | 13.77840 | 32019 ft | 462 kts | 353° |
| 2026-05-08 17:24 | 45.64685 | 13.77232 | 32020 ft | 463 kts | 353° |
| 2026-05-08 17:24 | 45.71110 | 13.76625 | 32005 ft | 462 kts | 353° |
| 2026-05-08 17:25 | 45.77528 | 13.76023 | 32007 ft | 463 kts | 353° |
| 2026-05-08 17:25 | 45.83970 | 13.75408 | 31999 ft | 463 kts | 353° |
| 2026-05-08 17:26 | 45.90404 | 13.74801 | 31999 ft | 464 kts | 353° |
| 2026-05-08 17:26 | 45.96895 | 13.74189 | 32005 ft | 464 kts | 353° |
| 2026-05-08 17:27 | 46.03294 | 13.73579 | 32025 ft | 464 kts | 353° |
| 2026-05-08 17:27 | 46.09751 | 13.72959 | 32023 ft | 467 kts | 353° |
| 2026-05-08 17:28 | 46.17024 | 13.72261 | 32046 ft | 466 kts | 353° |
| 2026-05-08 17:28 | 46.22687 | 13.71720 | 32052 ft | 464 kts | 352° |
| 2026-05-08 17:29 | 46.29033 | 13.70264 | 32066 ft | 462 kts | 346° |
| 2026-05-08 17:29 | 46.35377 | 13.68608 | 32058 ft | 463 kts | 346° |
| 2026-05-08 17:30 | 46.41720 | 13.66947 | 32064 ft | 463 kts | 346° |
| 2026-05-08 17:30 | 46.48044 | 13.65285 | 32057 ft | 461 kts | 345° |
| 2026-05-08 17:31 | 46.54357 | 13.63618 | 32053 ft | 461 kts | 346° |
| 2026-05-08 17:31 | 46.60678 | 13.61961 | 32061 ft | 461 kts | 345° |
| 2026-05-08 17:32 | 46.66984 | 13.60295 | 32062 ft | 461 kts | 345° |
| 2026-05-08 17:32 | 46.73929 | 13.58455 | 32064 ft | 460 kts | 345° |
| 2026-05-08 17:33 | 46.79588 | 13.56960 | 32078 ft | 460 kts | 345° |
| 2026-05-08 17:33 | 46.85896 | 13.55287 | 32090 ft | 460 kts | 346° |
| 2026-05-08 17:34 | 46.92193 | 13.53604 | 32075 ft | 460 kts | 346° |
| 2026-05-08 17:34 | 46.98532 | 13.51893 | 32088 ft | 460 kts | 346° |
| 2026-05-08 17:35 | 47.04822 | 13.50206 | 32078 ft | 459 kts | 346° |
| 2026-05-08 17:35 | 47.11118 | 13.48533 | 32063 ft | 461 kts | 346° |
| 2026-05-08 17:36 | 47.17383 | 13.46855 | 32077 ft | 456 kts | 346° |
| 2026-05-08 17:36 | 47.23663 | 13.45157 | 32087 ft | 460 kts | 345° |
| 2026-05-08 17:37 | 47.29939 | 13.43460 | 32059 ft | 458 kts | 345° |
| 2026-05-08 17:37 | 47.36201 | 13.41778 | 32057 ft | 458 kts | 345° |
| 2026-05-08 17:38 | 47.42488 | 13.40067 | 32072 ft | 460 kts | 345° |
| 2026-05-08 17:38 | 47.48578 | 13.37644 | 32069 ft | 451 kts | 330° |
| 2026-05-08 17:39 | 47.53873 | 13.32892 | 32060 ft | 440 kts | 315° |
| 2026-05-08 17:39 | 47.58615 | 13.27149 | 32062 ft | 441 kts | 315° |
| 2026-05-08 17:40 | 47.63393 | 13.21352 | 32061 ft | 441 kts | 315° |
| 2026-05-08 17:40 | 47.68134 | 13.15567 | 32079 ft | 441 kts | 314° |
| 2026-05-08 17:41 | 47.72834 | 13.09821 | 32091 ft | 441 kts | 315° |
| 2026-05-08 17:41 | 47.77558 | 13.04041 | 32078 ft | 439 kts | 315° |
| 2026-05-08 17:42 | 47.82265 | 12.98262 | 32077 ft | 439 kts | 314° |
| 2026-05-08 17:42 | 47.86970 | 12.92467 | 32077 ft | 437 kts | 315° |
| 2026-05-08 17:43 | 47.91677 | 12.86655 | 32063 ft | 445 kts | 314° |
| 2026-05-08 17:43 | 47.94069 | 12.83692 | 31647 ft | 443 kts | 313° |
| 2026-05-08 17:43 | 47.96128 | 12.80426 | 30773 ft | 422 kts | 299° |
| 2026-05-08 17:44 | 47.97642 | 12.76773 | 29854 ft | 409 kts | 296° |
| 2026-05-08 17:44 | 47.99082 | 12.73151 | 28797 ft | 403 kts | 296° |
| 2026-05-08 17:44 | 48.00508 | 12.69550 | 27771 ft | 397 kts | 296° |
| 2026-05-08 17:44 | 48.01899 | 12.66035 | 26798 ft | 391 kts | 296° |
| 2026-05-08 17:45 | 48.03276 | 12.62553 | 25857 ft | 386 kts | 297° |
| 2026-05-08 17:45 | 48.04616 | 12.59159 | 24949 ft | 381 kts | 297° |
| 2026-05-08 17:45 | 48.05959 | 12.55760 | 24499 ft | 364 kts | 297° |
| 2026-05-08 17:45 | 48.07213 | 12.52607 | 24215 ft | 345 kts | 298° |
| 2026-05-08 17:46 | 48.08442 | 12.49537 | 23632 ft | 337 kts | 298° |
| 2026-05-08 17:46 | 48.09640 | 12.46544 | 22841 ft | 332 kts | 298° |
| 2026-05-08 17:46 | 48.10816 | 12.43602 | 22067 ft | 329 kts | 298° |
| 2026-05-08 17:46 | 48.11975 | 12.40700 | 21302 ft | 326 kts | 298° |
| 2026-05-08 17:47 | 48.13142 | 12.37795 | 20588 ft | 323 kts | 301° |
| 2026-05-08 17:47 | 48.14567 | 12.35203 | 19871 ft | 323 kts | 315° |
| 2026-05-08 17:47 | 48.16163 | 12.32859 | 19173 ft | 319 kts | 304° |
| 2026-05-08 17:47 | 48.16903 | 12.30939 | 18747 ft | 314 kts | 289° |
| 2026-05-08 17:48 | 48.17185 | 12.26727 | 17793 ft | 308 kts | 257° |
| 2026-05-08 17:48 | 48.16715 | 12.24696 | 17304 ft | 307 kts | 241° |
| 2026-05-08 17:48 | 48.14984 | 12.21376 | 16353 ft | 305 kts | 234° |
| 2026-05-08 17:48 | 48.14056 | 12.18513 | 15697 ft | 300 kts | 258° |
| 2026-05-08 17:49 | 48.13980 | 12.15378 | 15403 ft | 317 kts | 278° |
| 2026-05-08 17:49 | 48.14388 | 12.12031 | 15144 ft | 333 kts | 280° |
| 2026-05-08 17:49 | 48.14817 | 12.08580 | 14896 ft | 336 kts | 279° |
| 2026-05-08 17:49 | 48.15232 | 12.05192 | 14670 ft | 336 kts | 279° |
| 2026-05-08 17:50 | 48.15659 | 12.01667 | 14438 ft | 336 kts | 279° |
| 2026-05-08 17:50 | 48.16068 | 11.98254 | 14190 ft | 334 kts | 279° |
| 2026-05-08 17:50 | 48.16477 | 11.94835 | 13959 ft | 333 kts | 279° |
| 2026-05-08 17:50 | 48.16881 | 11.91437 | 13706 ft | 330 kts | 279° |
| 2026-05-08 17:51 | 48.17281 | 11.88083 | 13436 ft | 323 kts | 279° |
| 2026-05-08 17:51 | 48.17669 | 11.84813 | 13167 ft | 315 kts | 279° |
| 2026-05-08 17:51 | 48.17918 | 11.81595 | 12903 ft | 307 kts | 270° |
| 2026-05-08 17:51 | 48.17776 | 11.78447 | 12647 ft | 300 kts | 262° |
| 2026-05-08 17:52 | 48.17510 | 11.75373 | 12387 ft | 294 kts | 263° |
| 2026-05-08 17:52 | 48.17261 | 11.72367 | 12130 ft | 288 kts | 263° |
| 2026-05-08 17:52 | 48.16775 | 11.66493 | 11638 ft | 283 kts | 263° |
| 2026-05-08 17:53 | 48.16539 | 11.63635 | 11396 ft | 282 kts | 263° |
| 2026-05-08 17:53 | 48.16372 | 11.61616 | 11227 ft | 281 kts | 263° |
| 2026-05-08 17:53 | 48.16133 | 11.58741 | 10984 ft | 279 kts | 263° |
| 2026-05-08 17:53 | 48.15891 | 11.55878 | 10729 ft | 276 kts | 263° |
| 2026-05-08 17:54 | 48.15649 | 11.53029 | 10501 ft | 275 kts | 263° |
| 2026-05-08 17:54 | 48.15405 | 11.50163 | 10258 ft | 288 kts | 263° |
| 2026-05-08 17:54 | 48.15145 | 11.47130 | 10014 ft | 292 kts | 262° |
| 2026-05-08 17:54 | 48.14889 | 11.44168 | 9889 ft | 280 kts | 263° |
| 2026-05-08 17:55 | 48.14642 | 11.41325 | 9770 ft | 273 kts | 263° |
| 2026-05-08 17:55 | 48.14577 | 11.38489 | 9199 ft | 274 kts | 279° |
| 2026-05-08 17:55 | 48.15257 | 11.35827 | 8444 ft | 277 kts | 303° |
| 2026-05-08 17:55 | 48.16640 | 11.33820 | 7697 ft | 281 kts | 328° |
| 2026-05-08 17:56 | 48.18473 | 11.32867 | 6982 ft | 283 kts | 354° |
| 2026-05-08 17:56 | 48.20414 | 11.33164 | 6249 ft | 282 kts | 21° |
| 2026-05-08 17:56 | 48.22089 | 11.34577 | 5714 ft | 270 kts | 36° |
| 2026-05-08 17:56 | 48.23567 | 11.36114 | 5648 ft | 250 kts | 36° |
| 2026-05-08 17:57 | 48.24967 | 11.37558 | 5564 ft | 237 kts | 37° |
| 2026-05-08 17:57 | 48.26308 | 11.38943 | 5485 ft | 236 kts | 36° |
| 2026-05-08 17:57 | 48.27664 | 11.40349 | 5405 ft | 236 kts | 37° |
| 2026-05-08 17:57 | 48.29017 | 11.41753 | 5327 ft | 236 kts | 37° |
| 2026-05-08 17:58 | 48.30353 | 11.43179 | 5246 ft | 236 kts | 42° |
| 2026-05-08 17:58 | 48.31381 | 11.45054 | 5147 ft | 232 kts | 63° |
| 2026-05-08 17:58 | 48.31876 | 11.47326 | 5054 ft | 229 kts | 83° |
| 2026-05-08 17:58 | 48.32066 | 11.49690 | 4828 ft | 229 kts | 83° |
| 2026-05-08 17:59 | 48.32254 | 11.52093 | 4533 ft | 228 kts | 83° |
| 2026-05-08 17:59 | 48.32438 | 11.54415 | 4234 ft | 226 kts | 83° |
| 2026-05-08 17:59 | 48.32624 | 11.56751 | 3928 ft | 224 kts | 83° |
| 2026-05-08 17:59 | 48.32808 | 11.59081 | 3623 ft | 217 kts | 83° |
| 2026-05-08 18:00 | 48.32982 | 11.61269 | 3395 ft | 204 kts | 82° |
| 2026-05-08 18:00 | 48.33289 | 11.65170 | 2854 ft | 175 kts | 82° |
| 2026-05-08 18:00 | 48.33425 | 11.66915 | 2635 ft | 159 kts | 82° |
| 2026-05-08 18:01 | 48.33551 | 11.68513 | 2425 ft | 151 kts | 82° |
| 2026-05-08 18:01 | 48.33675 | 11.70087 | 2213 ft | 148 kts | 82° |
| 2026-05-08 18:01 | 48.33786 | 11.71631 | 2005 ft | 147 kts | 81° |
| 2026-05-08 18:01 | 48.33902 | 11.73138 | 1792 ft | 148 kts | 79° |
| 2026-05-08 18:02 | 48.34032 | 11.74681 | 1603 ft | 147 kts | 81° |
| 2026-05-08 18:02 | 48.34110 | 11.75685 | 1500 ft | 145 kts | 82° |
| 2026-05-08 18:02 | 48.34243 | 11.77303 | 1485 ft | 64 kts | 83° |
| 2026-05-08 18:02 | 48.34273 | 11.77765 | 1485 ft | 41 kts | 83° |
| 2026-05-08 18:03 | 48.34311 | 11.78160 | 1481 ft | 34 kts | 72° |
| 2026-05-08 18:03 | 48.34425 | 11.78445 | 1483 ft | 25 kts | 56° |
| 2026-05-08 18:03 | 48.34520 | 11.78641 | 1473 ft | 14 kts | 53° |
| 2026-05-08 18:03 | 48.34550 | 11.78699 | 1485 ft | 6 kts | 52° |
| 2026-05-08 18:04 | 48.34580 | 11.78732 | 1481 ft | 7 kts | 20° |
| 2026-05-08 18:04 | 48.34644 | 11.78735 | 1482 ft | 10 kts | 354° |
| 2026-05-08 18:04 | 48.34711 | 11.78714 | 1475 ft | 9 kts | 328° |
| 2026-05-08 18:04 | 48.34720 | 11.78634 | 1479 ft | 7 kts | 264° |
| 2026-05-08 18:05 | 48.34713 | 11.78548 | 1485 ft | 11 kts | 264° |
| 2026-05-08 18:05 | 48.34703 | 11.78394 | 1485 ft | 18 kts | 264° |
| 2026-05-08 18:05 | 48.34685 | 11.78194 | 1479 ft | 21 kts | 262° |
| 2026-05-08 18:05 | 48.34670 | 11.77994 | 1485 ft | 15 kts | 264° |
| 2026-05-08 18:06 | 48.34707 | 11.77890 | 1483 ft | 5 kts | 348° |